createdAt,value
2018-07-08T00:02:56.494Z,16.05
2018-07-08T00:07:59.686Z,16.05
2018-07-08T00:13:02.892Z,16.15
2018-07-08T00:18:06.106Z,16.07
2018-07-08T00:23:09.241Z,16.07
2018-07-08T00:28:12.376Z,15.96
2018-07-08T00:33:15.520Z,15.90
2018-07-08T00:38:19.278Z,15.87
2018-07-08T00:43:22.384Z,15.94
2018-07-08T00:48:25.531Z,15.78
2018-07-08T00:53:28.731Z,15.65
2018-07-08T00:58:32.707Z,15.57
2018-07-08T01:03:35.895Z,15.40
2018-07-08T01:08:39.129Z,15.32
2018-07-08T01:13:42.170Z,15.39
2018-07-08T01:18:45.318Z,15.52
2018-07-08T01:23:48.397Z,15.44
2018-07-08T01:28:51.482Z,15.46
2018-07-08T01:33:54.645Z,15.38
2018-07-08T01:38:57.808Z,15.34
2018-07-08T01:44:00.957Z,15.20
2018-07-08T01:49:04.244Z,15.14
2018-07-08T01:54:07.408Z,15.08
2018-07-08T01:59:10.862Z,14.95
2018-07-08T02:04:14.051Z,14.98
2018-07-08T02:09:17.273Z,14.79
2018-07-08T02:14:21.471Z,14.62
2018-07-08T02:19:24.851Z,14.52
2018-07-08T02:24:28.864Z,14.35
2018-07-08T02:29:32.715Z,14.38
2018-07-08T02:34:35.956Z,14.32
2018-07-08T02:39:39.102Z,14.31
2018-07-08T02:44:42.576Z,14.25
2018-07-08T02:49:46.120Z,14.25
2018-07-08T02:54:49.222Z,14.21
2018-07-08T02:59:52.334Z,14.36
2018-07-08T03:04:55.481Z,14.40
2018-07-08T03:09:58.670Z,14.45
2018-07-08T03:15:01.838Z,14.57
2018-07-08T03:20:05.005Z,14.67
2018-07-08T03:25:08.093Z,14.83
2018-07-08T03:30:12.056Z,15.02
2018-07-08T03:35:15.163Z,15.08
2018-07-08T03:40:18.238Z,15.14
2018-07-08T03:45:21.356Z,15.21
2018-07-08T03:50:24.498Z,15.49
2018-07-08T03:55:27.944Z,15.50
2018-07-08T04:00:31.112Z,15.25
2018-07-08T04:05:34.889Z,15.43
2018-07-08T04:10:37.999Z,15.40
2018-07-08T04:15:41.206Z,15.43
2018-07-08T04:20:44.339Z,15.46
2018-07-08T04:25:47.466Z,15.46
2018-07-08T04:30:50.615Z,15.62
2018-07-08T04:35:53.754Z,15.53
2018-07-08T04:40:56.905Z,15.72
2018-07-08T04:46:00.152Z,15.93
2018-07-08T04:51:03.501Z,15.78
2018-07-08T04:56:06.810Z,15.84
2018-07-08T05:01:09.952Z,16.29
2018-07-08T05:06:13.161Z,16.79
2018-07-08T05:11:16.324Z,18.04
2018-07-08T05:16:19.614Z,18.29
2018-07-08T05:21:22.835Z,21.93
2018-07-08T05:26:26.010Z,25.41
2018-07-08T05:31:29.264Z,23.91
2018-07-08T05:36:33.512Z,22.45
2018-07-08T05:41:37.227Z,21.44
2018-07-08T05:46:40.443Z,21.02
2018-07-08T05:51:43.588Z,19.76
2018-07-08T05:56:46.722Z,19.71
2018-07-08T06:01:49.911Z,18.68
2018-07-08T06:06:53.032Z,18.31
2018-07-08T06:11:56.192Z,17.81
2018-07-08T06:16:59.531Z,17.57
2018-07-08T06:22:02.644Z,17.62
2018-07-08T06:27:05.833Z,17.82
2018-07-08T06:32:08.934Z,17.70
2018-07-08T06:37:12.038Z,18.30
2018-07-08T06:42:15.501Z,19.25
2018-07-08T06:47:18.758Z,18.91
2018-07-08T06:52:22.046Z,19.22
2018-07-08T06:57:25.262Z,19.41
2018-07-08T07:02:28.473Z,19.32
2018-07-08T07:07:31.627Z,19.04
2018-07-08T07:12:34.743Z,19.06
2018-07-08T07:17:37.939Z,18.81
2018-07-08T07:22:41.042Z,18.76
2018-07-08T07:27:44.193Z,18.59
2018-07-08T07:32:47.316Z,18.19
2018-07-08T07:37:50.510Z,18.39
2018-07-08T07:42:53.664Z,18.93
2018-07-08T07:47:58.454Z,19.16
2018-07-08T07:53:01.605Z,19.06
2018-07-08T07:58:04.778Z,19.46
2018-07-08T08:03:07.976Z,19.83
2018-07-08T08:08:11.159Z,20.73
2018-07-08T08:13:14.277Z,20.23
2018-07-08T08:18:17.403Z,20.49
2018-07-08T08:23:20.573Z,19.67
2018-07-08T08:28:23.707Z,19.88
2018-07-08T08:33:27.863Z,19.87
2018-07-08T08:38:31.135Z,20.70
2018-07-08T08:43:34.350Z,21.64
2018-07-08T08:48:38.535Z,21.51
2018-07-08T08:53:41.594Z,22.02
2018-07-08T08:58:44.751Z,21.64
2018-07-08T09:03:47.938Z,22.12
2018-07-08T09:08:51.040Z,23.22
2018-07-08T09:13:54.786Z,23.25
2018-07-08T09:18:57.994Z,24.74
2018-07-08T09:24:01.323Z,24.35
2018-07-08T09:29:04.506Z,24.20
2018-07-08T09:34:07.660Z,24.75
2018-07-08T09:39:10.890Z,25.27
2018-07-08T09:44:13.912Z,26.83
2018-07-08T09:49:17.076Z,25.61
2018-07-08T09:54:20.209Z,24.48
2018-07-08T10:05:11.213Z,25.83
2018-07-08T10:10:14.342Z,26.37
2018-07-08T10:15:17.619Z,28.58
2018-07-08T10:20:20.766Z,26.27
2018-07-08T10:25:23.977Z,27.21
2018-07-08T10:30:27.212Z,25.86
2018-07-08T10:35:41.706Z,26.43
2018-07-08T10:40:44.941Z,28.69
2018-07-08T10:45:48.066Z,27.77
2018-07-08T10:50:51.224Z,26.76
2018-07-08T10:55:54.537Z,28.26
2018-07-08T11:00:58.443Z,29.17
2018-07-08T11:06:01.838Z,29.82
2018-07-08T11:11:05.376Z,29.87
2018-07-08T11:16:08.605Z,29.58
2018-07-08T11:21:11.835Z,30.23
2018-07-08T11:26:14.949Z,29.98
2018-07-08T11:31:18.113Z,28.45
2018-07-08T11:36:21.295Z,27.30
2018-07-08T11:41:24.414Z,26.82
2018-07-08T11:46:27.682Z,27.75
2018-07-08T11:51:30.830Z,27.76
2018-07-08T11:56:34.036Z,27.77
2018-07-08T12:01:37.206Z,28.40
2018-07-08T12:06:40.295Z,27.05
2018-07-08T12:11:43.492Z,26.65
2018-07-08T12:16:46.690Z,26.09
2018-07-08T12:21:49.820Z,26.02
2018-07-08T12:26:52.973Z,26.30
2018-07-08T12:31:56.072Z,26.58
2018-07-08T12:36:59.289Z,26.68
2018-07-08T12:42:02.554Z,28.30
2018-07-08T12:47:05.705Z,28.43
2018-07-08T12:52:08.809Z,29.36
2018-07-08T12:57:11.964Z,30.44
2018-07-08T13:02:15.060Z,27.32
2018-07-08T13:07:18.206Z,27.85
2018-07-08T13:12:21.374Z,28.10
2018-07-08T13:17:25.601Z,29.06
2018-07-08T13:22:28.969Z,29.65
2018-07-08T13:27:32.306Z,28.27
2018-07-08T13:32:35.560Z,27.94
2018-07-08T13:37:38.736Z,27.68
2018-07-08T13:42:41.844Z,28.10
2018-07-08T13:47:45.011Z,28.29
2018-07-08T13:52:48.673Z,28.67
2018-07-08T13:57:51.839Z,28.96
2018-07-08T14:02:55.108Z,29.17
2018-07-08T14:08:00.097Z,29.06
2018-07-08T14:13:03.380Z,28.87
2018-07-08T14:18:06.570Z,29.71
2018-07-08T14:23:09.757Z,29.46
2018-07-08T14:28:13.569Z,27.77
2018-07-08T14:33:17.161Z,28.59
2018-07-08T14:38:20.383Z,29.44
2018-07-08T14:43:23.520Z,29.86
2018-07-08T14:48:28.063Z,30.48
2018-07-08T14:53:32.472Z,29.37
2018-07-08T14:58:35.863Z,28.56
2018-07-08T15:03:39.213Z,27.10
2018-07-08T15:08:42.472Z,27.34
2018-07-08T15:13:45.637Z,28.58
2018-07-08T15:18:49.563Z,29.07
2018-07-08T15:23:53.272Z,29.31
2018-07-08T15:28:56.585Z,29.32
2018-07-08T15:33:59.970Z,30.12
2018-07-08T15:39:04.562Z,28.35
2018-07-08T15:44:07.766Z,28.16
2018-07-08T15:49:12.071Z,28.65
2018-07-08T15:54:15.294Z,29.56
2018-07-08T15:59:18.906Z,29.77
2018-07-08T16:04:22.107Z,30.38
2018-07-08T16:09:25.284Z,29.94
2018-07-08T16:14:28.674Z,29.71
2018-07-08T16:19:31.951Z,29.63
2018-07-08T16:24:35.214Z,29.87
2018-07-08T16:29:38.434Z,28.56
2018-07-08T16:34:41.921Z,28.97
2018-07-08T16:39:45.141Z,29.22
2018-07-08T16:44:48.323Z,28.81
2018-07-08T16:49:51.539Z,28.74
2018-07-08T16:54:54.759Z,28.85
2018-07-08T16:59:58.127Z,29.19
2018-07-08T17:05:02.149Z,28.84
2018-07-08T17:10:05.624Z,28.54
2018-07-08T17:15:08.927Z,28.89
2018-07-08T17:20:12.103Z,28.53
2018-07-08T17:25:15.285Z,28.04
2018-07-08T17:30:18.403Z,27.91
2018-07-08T17:35:22.116Z,27.85
2018-07-08T17:40:25.330Z,28.06
2018-07-08T17:45:28.659Z,27.86
2018-07-08T17:50:31.935Z,27.75
2018-07-08T17:55:35.140Z,27.55
2018-07-08T18:00:38.312Z,27.51
2018-07-08T18:05:45.505Z,27.34
2018-07-08T18:10:49.327Z,26.71
2018-07-08T18:15:52.790Z,26.47
2018-07-08T18:20:56.111Z,26.18
2018-07-08T18:25:59.598Z,26.24
2018-07-08T18:31:02.917Z,25.98
2018-07-08T18:36:06.439Z,25.67
2018-07-08T18:41:09.682Z,25.64
2018-07-08T18:46:13.006Z,25.51
2018-07-08T18:51:16.693Z,25.33
2018-07-08T18:56:21.149Z,25.06
2018-07-08T19:01:24.343Z,24.84
2018-07-08T19:06:28.117Z,24.55
2018-07-08T19:11:34.016Z,24.42
2018-07-08T19:16:38.859Z,24.19
2018-07-08T19:21:50.174Z,23.95
2018-07-08T19:26:57.763Z,23.92
2018-07-08T19:32:02.618Z,23.70
2018-07-08T19:37:06.764Z,23.54
2018-07-08T19:42:11.259Z,23.53
2018-07-08T19:47:14.447Z,23.37
2018-07-08T19:52:18.225Z,23.29
2018-07-08T19:57:22.177Z,23.26
2018-07-08T20:02:25.789Z,23.11
2018-07-08T20:07:30.924Z,22.90
2018-07-08T20:12:34.304Z,22.73
2018-07-08T20:17:40.694Z,22.51
2018-07-08T20:22:45.225Z,22.30
2018-07-08T20:27:49.130Z,22.28
2018-07-08T20:32:53.176Z,22.16
2018-07-08T20:37:57.984Z,21.79
2018-07-08T20:43:01.611Z,21.38
2018-07-08T20:48:05.186Z,21.25
2018-07-08T20:53:08.526Z,21.07
2018-07-08T20:58:12.352Z,21.17
2018-07-08T21:03:16.865Z,20.98
2018-07-08T21:08:20.654Z,20.84
2018-07-08T21:13:23.869Z,20.56
2018-07-08T21:18:27.302Z,20.24
2018-07-08T21:23:32.532Z,19.97
2018-07-08T21:28:35.794Z,19.69
2018-07-08T21:33:38.983Z,19.50
2018-07-08T21:38:45.015Z,19.39
2018-07-08T21:43:48.151Z,19.22
